createdAt,value
2022-07-25T00:01:57.666Z,19.90
2022-07-25T00:04:25.253Z,19.55
2022-07-25T00:06:52.757Z,19.48
2022-07-25T00:09:21.709Z,19.51
2022-07-25T00:11:49.157Z,19.40
2022-07-25T00:14:16.613Z,19.42
2022-07-25T00:16:44.091Z,19.53
2022-07-25T00:19:11.586Z,19.38
2022-07-25T00:21:39.004Z,19.47
2022-07-25T00:24:07.562Z,19.33
2022-07-25T00:26:40.019Z,19.46
2022-07-25T00:29:08.063Z,19.21
2022-07-25T00:31:35.838Z,19.33
2022-07-25T00:34:04.498Z,19.34
2022-07-25T00:36:32.303Z,19.27
2022-07-25T00:38:59.749Z,19.12
2022-07-25T00:41:27.201Z,19.14
2022-07-25T00:43:55.945Z,19.11
2022-07-25T00:46:23.942Z,19.20
2022-07-25T00:48:51.528Z,19.21
2022-07-25T00:51:19.422Z,19.46
2022-07-25T00:53:46.973Z,19.27
2022-07-25T00:56:14.393Z,19.34
2022-07-25T00:58:41.825Z,19.42
2022-07-25T01:01:10.611Z,19.18
2022-07-25T01:03:38.091Z,19.36
2022-07-25T01:06:05.913Z,19.32
2022-07-25T01:08:33.580Z,19.30
2022-07-25T01:11:01.124Z,19.39
2022-07-25T01:13:28.577Z,19.30
2022-07-25T01:15:56.120Z,19.20
2022-07-25T01:18:24.897Z,18.97
2022-07-25T01:20:53.931Z,19.04
2022-07-25T01:23:21.420Z,19.02
2022-07-25T01:25:48.895Z,19.11
2022-07-25T01:28:16.312Z,18.89
2022-07-25T01:30:44.050Z,18.80
2022-07-25T01:33:16.424Z,18.74
2022-07-25T01:35:44.015Z,18.80
2022-07-25T01:38:12.974Z,18.85
2022-07-25T01:40:40.648Z,18.85
2022-07-25T01:43:08.545Z,18.99
2022-07-25T01:45:36.261Z,18.94
2022-07-25T01:48:03.989Z,18.91
2022-07-25T01:50:31.506Z,18.89
2022-07-25T01:52:58.974Z,18.72
2022-07-25T01:55:27.756Z,18.78
2022-07-25T01:57:57.374Z,18.77
2022-07-25T02:00:25.243Z,18.73
2022-07-25T02:03:13.308Z,18.76
2022-07-25T02:05:40.907Z,18.92
2022-07-25T02:08:08.357Z,18.94
2022-07-25T02:10:40.082Z,18.82
2022-07-25T02:13:07.950Z,18.91
2022-07-25T02:15:36.694Z,18.82
2022-07-25T02:18:04.304Z,18.73
2022-07-25T02:20:31.766Z,18.69
2022-07-25T02:22:59.330Z,18.83
2022-07-25T02:25:26.741Z,18.69
2022-07-25T02:27:55.482Z,18.78
2022-07-25T02:30:22.975Z,18.74
2022-07-25T02:32:50.834Z,18.85
2022-07-25T02:35:18.359Z,18.74
2022-07-25T02:37:46.317Z,18.85
2022-07-25T02:40:14.345Z,18.70
2022-07-25T02:42:41.854Z,18.75
2022-07-25T02:45:11.021Z,18.50
2022-07-25T02:47:39.098Z,18.51
2022-07-25T02:50:07.514Z,18.71
2022-07-25T02:52:35.756Z,18.77
2022-07-25T02:55:09.089Z,18.73
2022-07-25T02:57:37.055Z,18.70
2022-07-25T03:00:06.051Z,18.78
2022-07-25T03:02:35.028Z,18.78
2022-07-25T03:05:02.935Z,18.67
2022-07-25T03:07:30.331Z,18.62
2022-07-25T03:09:57.743Z,18.61
2022-07-25T03:12:25.195Z,18.52
2022-07-25T03:14:52.606Z,18.65
2022-07-25T03:17:20.047Z,18.54
2022-07-25T03:19:48.767Z,18.77
2022-07-25T03:22:16.191Z,18.64
2022-07-25T03:24:43.745Z,18.70
2022-07-25T03:27:11.161Z,18.86
2022-07-25T03:29:39.065Z,18.75
2022-07-25T03:32:07.396Z,18.86
2022-07-25T03:34:35.349Z,18.81
2022-07-25T03:37:05.544Z,18.90
2022-07-25T03:39:34.045Z,18.94
2022-07-25T03:42:02.511Z,18.84
2022-07-25T03:44:29.921Z,19.07
2022-07-25T03:46:57.376Z,18.96
2022-07-25T03:49:24.876Z,19.06
2022-07-25T03:51:52.325Z,19.06
2022-07-25T03:54:21.319Z,19.02
2022-07-25T03:56:50.270Z,19.20
2022-07-25T03:59:19.397Z,19.21
2022-07-25T04:01:48.271Z,19.17
2022-07-25T04:04:16.218Z,19.16
2022-07-25T04:06:44.008Z,19.31
2022-07-25T04:09:12.261Z,19.45
2022-07-25T04:11:41.041Z,19.63
2022-07-25T04:14:09.186Z,19.68
2022-07-25T04:16:37.120Z,19.84
2022-07-25T04:19:06.947Z,19.92
2022-07-25T04:21:34.635Z,20.04
2022-07-25T04:24:02.384Z,20.04
2022-07-25T04:26:30.033Z,20.06
2022-07-25T04:28:58.854Z,20.24
2022-07-25T04:31:26.592Z,20.38
2022-07-25T04:33:54.112Z,20.81
2022-07-25T04:36:22.030Z,21.20
2022-07-25T04:38:49.442Z,21.68
2022-07-25T04:41:17.100Z,22.22
2022-07-25T04:43:48.499Z,22.60
2022-07-25T04:46:20.438Z,22.98
2022-07-25T04:48:48.171Z,22.73
2022-07-25T04:51:15.994Z,22.59
2022-07-25T04:53:43.455Z,22.68
2022-07-25T04:56:10.874Z,22.72
2022-07-25T04:58:38.495Z,22.69
2022-07-25T05:01:06.175Z,22.71
2022-07-25T05:03:34.975Z,22.83
2022-07-25T05:06:02.411Z,22.91
2022-07-25T05:08:30.028Z,22.85
2022-07-25T05:10:57.622Z,22.79
2022-07-25T05:13:25.093Z,22.91
2022-07-25T05:15:52.664Z,22.98
2022-07-25T05:18:20.187Z,23.27
2022-07-25T05:20:49.020Z,23.43
2022-07-25T05:23:16.518Z,23.63
2022-07-25T05:25:44.086Z,23.72
2022-07-25T05:28:11.492Z,23.90
2022-07-25T05:30:40.137Z,23.97
2022-07-25T05:33:08.013Z,24.05
2022-07-25T05:35:35.591Z,24.15
2022-07-25T05:38:04.674Z,24.25
2022-07-25T05:40:32.111Z,24.43
2022-07-25T05:43:03.171Z,24.55
2022-07-25T05:45:31.323Z,24.62
2022-07-25T05:47:58.808Z,24.74
2022-07-25T05:50:26.374Z,24.83
2022-07-25T05:52:53.816Z,24.97
2022-07-25T05:55:22.592Z,25.01
2022-07-25T05:57:50.076Z,24.78
2022-07-25T06:00:17.900Z,24.96
2022-07-25T06:02:45.947Z,24.97
2022-07-25T06:05:16.320Z,25.19
2022-07-25T06:07:44.111Z,25.54
2022-07-25T06:10:11.683Z,25.56
2022-07-25T06:12:40.466Z,25.70
2022-07-25T06:15:17.726Z,25.55
2022-07-25T06:17:50.702Z,25.45
2022-07-25T06:20:18.164Z,25.72
2022-07-25T06:22:45.608Z,25.87
2022-07-25T06:25:13.058Z,25.99
2022-07-25T06:27:42.203Z,25.96
2022-07-25T06:30:19.755Z,26.16
2022-07-25T06:32:48.041Z,26.27
2022-07-25T06:35:15.495Z,26.27
2022-07-25T06:37:42.984Z,26.44
2022-07-25T06:40:11.169Z,26.74
2022-07-25T06:42:39.534Z,26.82
2022-07-25T06:45:10.998Z,26.76
2022-07-25T06:47:39.085Z,26.86
2022-07-25T06:50:08.239Z,27.00
2022-07-25T06:52:39.187Z,27.03
2022-07-25T06:55:09.280Z,26.93
2022-07-25T06:57:37.382Z,26.99
2022-07-25T07:00:09.600Z,27.49
2022-07-25T07:02:48.643Z,28.15
2022-07-25T07:05:16.072Z,28.73
2022-07-25T07:07:47.567Z,29.99
2022-07-25T07:10:15.888Z,29.93
2022-07-25T07:12:43.410Z,29.80
2022-07-25T07:15:11.668Z,29.43
2022-07-25T07:17:40.527Z,29.71
2022-07-25T07:20:09.691Z,31.15
2022-07-25T07:22:44.738Z,31.64
2022-07-25T07:25:13.952Z,30.60
2022-07-25T07:27:41.731Z,31.03
2022-07-25T07:30:10.458Z,30.36
2022-07-25T07:32:40.141Z,31.17
2022-07-25T07:35:08.052Z,31.51
2022-07-25T07:37:40.058Z,31.33
2022-07-25T07:40:17.212Z,31.44
2022-07-25T07:42:48.559Z,31.28
2022-07-25T07:45:17.842Z,31.70
2022-07-25T07:47:48.637Z,31.63
2022-07-25T07:50:18.216Z,31.01
2022-07-25T07:52:46.312Z,31.19
2022-07-25T07:55:31.888Z,31.11
2022-07-25T07:58:00.487Z,30.96
2022-07-25T08:00:30.909Z,31.18
2022-07-25T08:03:00.937Z,31.02
2022-07-25T08:05:30.734Z,31.12
2022-07-25T08:07:59.506Z,31.29
2022-07-25T08:10:29.010Z,31.25
2022-07-25T08:12:56.589Z,31.34
2022-07-25T08:15:24.538Z,31.36
2022-07-25T08:17:52.597Z,31.22
2022-07-25T08:20:39.233Z,31.44
2022-07-25T08:23:08.282Z,31.68
2022-07-25T08:25:36.473Z,31.86
2022-07-25T08:28:06.279Z,31.99
2022-07-25T08:30:34.993Z,32.27
2022-07-25T08:33:05.304Z,32.25
2022-07-25T08:35:35.846Z,32.25
2022-07-25T08:38:04.617Z,31.71
2022-07-25T08:40:33.645Z,32.00
2022-07-25T08:43:01.771Z,32.10
2022-07-25T08:45:30.021Z,31.92
2022-07-25T08:47:57.832Z,31.93
2022-07-25T08:50:28.051Z,31.84
2022-07-25T08:53:23.065Z,31.78
2022-07-25T08:55:45.715Z,32.07
2022-07-25T08:58:14.666Z,32.10
2022-07-25T09:00:42.513Z,32.60
2022-07-25T09:03:10.059Z,33.16
2022-07-25T09:05:38.031Z,33.56
2022-07-25T09:08:11.438Z,33.78
2022-07-25T09:10:42.344Z,33.83
2022-07-25T09:13:14.143Z,33.73
2022-07-25T09:15:48.229Z,34.07
2022-07-25T09:18:18.792Z,34.22
2022-07-25T09:20:48.353Z,34.45
2022-07-25T09:23:29.553Z,34.32
2022-07-25T09:26:03.298Z,34.03
2022-07-25T09:28:30.693Z,34.07
2022-07-25T09:30:59.578Z,33.99
2022-07-25T09:33:28.855Z,33.97
2022-07-25T09:35:57.424Z,34.09
2022-07-25T09:38:26.411Z,34.18
2022-07-25T09:40:58.148Z,34.13
2022-07-25T09:43:37.412Z,34.56
2022-07-25T09:46:06.841Z,34.48
2022-07-25T09:48:35.024Z,34.71
2022-07-25T09:51:02.813Z,34.85
2022-07-25T09:53:31.605Z,34.80
2022-07-25T09:55:59.637Z,34.96
2022-07-25T09:58:29.001Z,34.92
2022-07-25T10:01:02.113Z,35.13
2022-07-25T10:03:43.195Z,34.77
2022-07-25T10:06:20.609Z,34.54
2022-07-25T10:08:50.632Z,34.33
2022-07-25T10:11:23.019Z,34.53
2022-07-25T10:13:50.747Z,34.76
2022-07-25T10:16:20.153Z,34.89
2022-07-25T10:18:52.765Z,34.66
2022-07-25T10:21:29.001Z,34.39
2022-07-25T10:24:03.807Z,34.42
2022-07-25T10:26:32.372Z,34.36
2022-07-25T10:29:01.692Z,34.65
2022-07-25T10:31:36.423Z,34.95
2022-07-25T10:34:07.089Z,34.98
2022-07-25T10:36:46.902Z,34.94
2022-07-25T10:39:17.944Z,34.97
2022-07-25T10:41:52.092Z,35.05
2022-07-25T10:44:19.526Z,35.13
2022-07-25T10:46:49.147Z,35.33
2022-07-25T10:49:29.064Z,35.13
2022-07-25T10:52:00.585Z,35.16
2022-07-25T10:54:34.568Z,34.96
2022-07-25T10:57:02.457Z,34.88
2022-07-25T10:59:33.791Z,34.59
2022-07-25T11:02:01.902Z,34.80
2022-07-25T11:04:29.990Z,35.04
2022-07-25T11:06:57.975Z,34.97
2022-07-25T11:09:28.051Z,35.22
2022-07-25T11:11:58.807Z,34.86
2022-07-25T11:14:31.133Z,35.01
2022-07-25T11:16:58.869Z,35.05
2022-07-25T11:19:28.615Z,35.06
2022-07-25T11:21:57.692Z,35.24
2022-07-25T11:24:35.729Z,35.31
2022-07-25T11:27:12.854Z,34.99
2022-07-25T11:29:41.467Z,34.97
2022-07-25T11:32:10.290Z,35.00
2022-07-25T11:34:41.167Z,34.83
2022-07-25T11:37:14.591Z,35.31
2022-07-25T11:39:44.528Z,35.40
2022-07-25T11:42:16.335Z,35.19
2022-07-25T11:44:47.969Z,35.17
2022-07-25T11:47:26.964Z,34.95
2022-07-25T11:49:56.197Z,35.19
2022-07-25T11:52:26.103Z,35.11
2022-07-25T11:54:55.239Z,35.04
2022-07-25T11:57:25.475Z,35.39
2022-07-25T11:59:53.579Z,35.20
2022-07-25T12:02:26.029Z,35.00
2022-07-25T12:04:58.701Z,34.92
2022-07-25T12:07:40.133Z,35.05
2022-07-25T12:10:09.766Z,34.94
2022-07-25T12:12:50.794Z,35.21
2022-07-25T12:15:20.834Z,35.25
2022-07-25T12:17:49.033Z,35.42
2022-07-25T12:20:17.895Z,35.40
2022-07-25T12:22:45.891Z,35.14
2022-07-25T12:25:14.353Z,35.23
2022-07-25T12:27:41.881Z,35.29
2022-07-25T12:30:12.374Z,35.38
2022-07-25T12:32:40.131Z,35.36
2022-07-25T12:35:09.337Z,35.45
2022-07-25T12:37:37.367Z,35.54
2022-07-25T12:40:06.154Z,35.29
2022-07-25T12:42:33.646Z,35.58
2022-07-25T12:45:01.062Z,35.53
2022-07-25T12:47:30.123Z,35.37
2022-07-25T12:49:57.632Z,35.27
2022-07-25T12:52:25.081Z,35.35
2022-07-25T12:54:52.681Z,35.35
2022-07-25T12:57:20.799Z,35.49
2022-07-25T12:59:48.330Z,35.47
2022-07-25T13:02:15.925Z,35.51
2022-07-25T13:04:45.250Z,35.79
2022-07-25T13:07:15.365Z,35.70
2022-07-25T13:09:43.022Z,35.64
2022-07-25T13:12:16.157Z,35.46
2022-07-25T13:14:43.944Z,35.20
2022-07-25T13:17:11.996Z,35.35
2022-07-25T13:19:39.479Z,35.55
2022-07-25T13:22:08.308Z,35.43
2022-07-25T13:24:35.749Z,35.56
2022-07-25T13:27:04.261Z,35.57
2022-07-25T13:29:32.059Z,35.56
2022-07-25T13:31:59.750Z,35.62
2022-07-25T13:34:27.680Z,35.45
2022-07-25T13:36:55.162Z,35.36
2022-07-25T13:39:23.919Z,35.40
2022-07-25T13:41:51.370Z,35.37
2022-07-25T13:44:18.866Z,35.54
2022-07-25T13:46:49.831Z,35.46
2022-07-25T13:49:17.482Z,35.56
2022-07-25T13:51:45.619Z,35.49
2022-07-25T13:54:13.461Z,35.62
2022-07-25T13:56:42.444Z,35.63
2022-07-25T13:59:12.455Z,35.46
2022-07-25T14:01:44.390Z,35.34
2022-07-25T14:04:12.026Z,35.40
2022-07-25T14:06:39.504Z,35.41
2022-07-25T14:09:07.651Z,35.47
2022-07-25T14:11:35.454Z,35.53
2022-07-25T14:14:04.257Z,35.62
2022-07-25T14:16:31.762Z,35.36
2022-07-25T14:18:59.219Z,35.38
2022-07-25T14:21:26.710Z,35.36
2022-07-25T14:23:54.588Z,35.39
2022-07-25T14:26:22.178Z,35.39
2022-07-25T14:28:49.852Z,35.39
2022-07-25T14:31:18.705Z,35.39
2022-07-25T14:33:46.246Z,35.34
2022-07-25T14:36:14.242Z,35.30
2022-07-25T14:38:41.669Z,35.45
2022-07-25T14:41:12.882Z,35.30
2022-07-25T14:43:41.318Z,35.11
2022-07-25T14:46:09.184Z,35.06
2022-07-25T14:48:38.811Z,35.13
2022-07-25T14:51:07.488Z,35.22
2022-07-25T14:53:35.793Z,35.16
2022-07-25T14:56:03.699Z,35.11
2022-07-25T14:58:31.273Z,35.03
2022-07-25T15:00:58.766Z,35.16
2022-07-25T15:03:26.229Z,34.98
2022-07-25T15:05:54.994Z,35.03
2022-07-25T15:08:22.552Z,35.00
2022-07-25T15:10:50.341Z,35.04
2022-07-25T15:13:33.197Z,35.05
2022-07-25T15:16:02.071Z,34.90
2022-07-25T15:18:29.676Z,34.90
2022-07-25T15:20:58.536Z,34.68
2022-07-25T15:23:29.735Z,34.65
2022-07-25T15:26:02.246Z,34.60
2022-07-25T15:28:30.789Z,34.49
2022-07-25T15:30:58.236Z,34.62
2022-07-25T15:33:25.679Z,34.67
2022-07-25T15:35:53.352Z,34.59
2022-07-25T15:38:22.124Z,34.67
2022-07-25T15:40:49.941Z,34.74
2022-07-25T15:43:17.513Z,34.71
2022-07-25T15:45:46.791Z,34.76
2022-07-25T15:48:16.094Z,34.77
2022-07-25T15:50:46.700Z,34.79
2022-07-25T15:53:14.219Z,34.65
2022-07-25T15:55:43.251Z,34.72
2022-07-25T15:58:12.059Z,34.70
2022-07-25T16:00:40.858Z,34.70
2022-07-25T16:03:08.642Z,34.72
2022-07-25T16:05:36.588Z,34.62
2022-07-25T16:08:04.345Z,34.45
2022-07-25T16:10:33.231Z,34.33
2022-07-25T16:13:02.414Z,34.30
2022-07-25T16:15:30.390Z,34.13
2022-07-25T16:18:02.358Z,34.19
2022-07-25T16:20:31.326Z,34.22
2022-07-25T16:22:59.413Z,34.28
2022-07-25T16:25:28.758Z,34.40
2022-07-25T16:27:56.608Z,34.67
2022-07-25T16:30:25.817Z,34.82
2022-07-25T16:32:53.553Z,34.84
2022-07-25T16:35:21.260Z,34.86
2022-07-25T16:37:48.988Z,34.78
2022-07-25T16:40:16.539Z,34.75
2022-07-25T16:42:44.467Z,34.74
2022-07-25T16:45:12.489Z,34.61
2022-07-25T16:47:42.723Z,34.51
2022-07-25T16:50:10.448Z,34.52
2022-07-25T16:52:37.934Z,34.48
2022-07-25T16:55:06.205Z,34.44
2022-07-25T16:57:33.704Z,34.31
2022-07-25T17:00:01.655Z,34.37
2022-07-25T17:02:29.830Z,34.37
2022-07-25T17:04:59.232Z,34.29
2022-07-25T17:07:27.000Z,34.23
2022-07-25T17:09:54.709Z,34.25
2022-07-25T17:12:22.324Z,34.16
2022-07-25T17:14:49.895Z,34.10
2022-07-25T17:17:17.443Z,34.05
2022-07-25T17:19:44.832Z,33.99
2022-07-25T17:22:13.685Z,33.91
2022-07-25T17:24:41.239Z,33.86
2022-07-25T17:27:09.828Z,33.84
2022-07-25T17:29:37.677Z,33.80
2022-07-25T17:32:06.875Z,33.78
2022-07-25T17:34:34.558Z,33.69
2022-07-25T17:37:02.872Z,33.66
2022-07-25T17:39:33.515Z,33.65
2022-07-25T17:42:01.648Z,33.59
2022-07-25T17:44:29.059Z,33.50
2022-07-25T17:46:56.767Z,33.40
2022-07-25T17:49:24.247Z,33.25
2022-07-25T17:51:51.721Z,33.18
2022-07-25T17:54:19.160Z,33.30
2022-07-25T17:56:48.072Z,33.11
2022-07-25T17:59:15.500Z,33.10
2022-07-25T18:01:42.949Z,32.94
2022-07-25T18:04:10.971Z,32.78
2022-07-25T18:06:38.651Z,32.63
2022-07-25T18:09:06.101Z,32.59
2022-07-25T18:11:34.040Z,32.64
2022-07-25T18:14:02.792Z,32.54
2022-07-25T18:16:30.322Z,32.38
2022-07-25T18:18:57.834Z,31.86
2022-07-25T18:21:25.624Z,31.52
2022-07-25T18:23:53.525Z,31.00
2022-07-25T18:26:21.811Z,30.61
2022-07-25T18:28:49.509Z,30.51
2022-07-25T18:31:18.399Z,30.04
2022-07-25T18:33:46.008Z,30.08
2022-07-25T18:36:13.546Z,29.95
2022-07-25T18:38:40.963Z,30.06
2022-07-25T18:41:28.800Z,29.96
2022-07-25T18:43:56.925Z,29.60
2022-07-25T18:46:25.766Z,29.44
2022-07-25T18:48:54.085Z,29.39
2022-07-25T18:51:21.599Z,29.44
2022-07-25T18:53:49.545Z,29.41
2022-07-25T18:56:17.762Z,29.19
2022-07-25T18:58:45.550Z,29.16
2022-07-25T19:01:13.479Z,29.32
2022-07-25T19:03:42.262Z,29.35
2022-07-25T19:06:10.615Z,29.05
2022-07-25T19:08:38.191Z,29.15
2022-07-25T19:11:05.666Z,29.09
2022-07-25T19:13:50.964Z,29.02
2022-07-25T19:16:19.320Z,28.76
2022-07-25T19:18:48.516Z,28.53
2022-07-25T19:21:16.731Z,28.69
2022-07-25T19:23:50.133Z,28.32
2022-07-25T19:26:17.811Z,28.01
2022-07-25T19:28:45.256Z,27.95
2022-07-25T19:31:14.656Z,28.05
2022-07-25T19:33:42.230Z,27.96
2022-07-25T19:36:11.473Z,28.25
2022-07-25T19:38:39.231Z,28.29
2022-07-25T19:41:08.669Z,28.18
2022-07-25T19:43:36.126Z,28.24
2022-07-25T19:46:03.578Z,28.32
2022-07-25T19:48:31.255Z,28.03
2022-07-25T19:50:58.845Z,28.00
2022-07-25T19:53:28.817Z,28.03
2022-07-25T19:55:56.405Z,27.89
2022-07-25T19:58:23.897Z,27.40
2022-07-25T20:00:51.634Z,27.40
2022-07-25T20:03:23.201Z,27.68
2022-07-25T20:05:51.081Z,27.75
2022-07-25T20:08:18.874Z,27.63
2022-07-25T20:10:48.249Z,27.47
2022-07-25T20:13:16.028Z,27.50
2022-07-25T20:15:43.586Z,27.66
2022-07-25T20:18:13.792Z,27.52
2022-07-25T20:20:46.481Z,27.30
2022-07-25T20:23:15.557Z,27.06
2022-07-25T20:25:43.011Z,27.25
2022-07-25T20:28:12.040Z,27.17
2022-07-25T20:30:39.644Z,27.11
2022-07-25T20:33:09.625Z,26.97
2022-07-25T20:35:38.534Z,27.10
2022-07-25T20:38:09.424Z,26.63
2022-07-25T20:40:38.049Z,26.40
2022-07-25T20:43:09.075Z,25.94
2022-07-25T20:45:39.522Z,25.41
2022-07-25T20:48:07.560Z,25.80
2022-07-25T20:50:37.385Z,25.87
2022-07-25T20:53:05.035Z,25.79
2022-07-25T20:55:33.011Z,25.87
2022-07-25T20:58:01.063Z,25.86
2022-07-25T21:00:30.384Z,25.96
2022-07-25T21:02:59.997Z,25.91
2022-07-25T21:05:28.134Z,25.79
2022-07-25T21:07:55.704Z,25.88
2022-07-25T21:10:23.618Z,25.88
2022-07-25T21:12:51.178Z,25.75
2022-07-25T21:15:18.967Z,25.81
2022-07-25T21:17:46.424Z,25.79
2022-07-25T21:20:15.659Z,25.81
2022-07-25T21:22:44.354Z,25.91
2022-07-25T21:25:11.927Z,24.89
2022-07-25T21:27:39.962Z,25.01
2022-07-25T21:30:10.722Z,25.11
2022-07-25T21:32:39.166Z,25.22
2022-07-25T21:35:07.444Z,25.37
2022-07-25T21:37:36.208Z,25.16
2022-07-25T21:42:55.400Z,25.03
2022-07-25T21:45:23.042Z,25.14
2022-07-25T21:47:50.454Z,24.74
2022-07-25T21:50:35.588Z,25.02
2022-07-25T21:53:13.879Z,25.05
2022-07-25T21:55:41.716Z,24.87
2022-07-25T21:58:09.415Z,24.58
2022-07-25T22:00:41.733Z,24.23
2022-07-25T22:03:12.960Z,24.19
2022-07-25T22:05:40.428Z,24.56
2022-07-25T22:08:09.235Z,24.87
2022-07-25T22:10:38.047Z,24.90
2022-07-25T22:13:07.157Z,24.98
2022-07-25T22:15:34.601Z,25.00
2022-07-25T22:18:02.061Z,25.00
2022-07-25T22:20:29.542Z,25.07
2022-07-25T22:22:56.997Z,24.55
2022-07-25T22:25:24.772Z,24.69
2022-07-25T22:27:53.528Z,24.78
2022-07-25T22:30:21.145Z,24.54
2022-07-25T22:32:49.587Z,24.27
2022-07-25T22:35:17.373Z,24.29
2022-07-25T22:37:45.372Z,24.40
2022-07-25T22:40:14.168Z,24.72
2022-07-25T22:42:41.723Z,24.59
2022-07-25T22:45:11.408Z,24.90
2022-07-25T22:47:38.909Z,24.86
2022-07-25T22:50:07.998Z,25.01
2022-07-25T22:52:35.845Z,24.87
2022-07-25T22:55:03.504Z,24.84
2022-07-25T22:57:36.801Z,24.74
2022-07-25T23:00:06.292Z,24.50
2022-07-25T23:02:35.385Z,24.58
2022-07-25T23:05:04.612Z,24.44
2022-07-25T23:07:32.007Z,24.36
2022-07-25T23:09:59.664Z,24.20
2022-07-25T23:12:27.079Z,24.29
2022-07-25T23:14:54.560Z,24.27
2022-07-25T23:17:22.436Z,24.12
2022-07-25T23:19:53.934Z,24.25
2022-07-25T23:22:22.626Z,24.12
2022-07-25T23:24:50.050Z,24.00
2022-07-25T23:27:17.744Z,23.80
2022-07-25T23:29:45.464Z,23.96
2022-07-25T23:32:12.890Z,24.01
2022-07-25T23:34:40.342Z,23.86
2022-07-25T23:37:09.114Z,23.66
2022-07-25T23:39:36.537Z,23.37
2022-07-25T23:42:04.470Z,23.39
2022-07-25T23:44:31.928Z,23.27
2022-07-25T23:47:01.465Z,23.29
2022-07-25T23:49:29.812Z,23.40
2022-07-25T23:51:57.436Z,23.46
2022-07-25T23:54:26.487Z,23.41
2022-07-25T23:56:54.434Z,23.36
2022-07-25T23:59:21.877Z,23.57
